Terminal Aerodrome Forecast
Issued by NWS

Home | Current Version | Previous Version | Text Only | Print | Product List | Glossary On
Versions: 1 2 3 4 5 6 7 8 9 10 11 12 13 14 15 16 17 18 19 20 21 22 23 24 25 26 27 28 29 30 31 32 33 34 35 36 37 38
000
FTUS41 KBOX 282332
TAFACK
TAF
KACK 282332Z 2900/2924 36015KT 4SM -SN BR BKN007 OVC014
     FM290300 01008KT 3SM -SN OVC015
     FM290800 02010G18KT P6SM OVC025
     FM291300 02013KT P6SM BKN040
     FM291900 35008KT P6SM BKN250
     FM292000 28007KT P6SM BKN250=

USA.gov is the U.S. government's official web portal to all federal, state and local government web resources and services.